Time;durP1;ratioP1;P1;durP2;ratioP2;P2;SDS_P1;SDS_P2;PMS_P1;PMS_P2;Temp;Humidity;BMP_temperature;BMP_pressure;BME280_temperature;BME280_humidity;BME280_pressure;Samples;Min_cycle;Max_cycle;Signal;HPM_P1;HPM_P2
2022/10/15 00:01:50;;;;;;;33.90;18.30;;;;;;;11.22;66.98;99053.92;102953;1305;97924;-79
2022/10/15 00:04:21;;;;;;;35.10;19.00;;;;;;;11.21;66.99;99052.28;102924;1301;106701;-78
2022/10/15 00:06:52;;;;;;;33.40;18.70;;;;;;;11.16;67.01;99056.15;102949;1299;98326;-78
2022/10/15 00:09:19;;;;;;;31.80;17.70;;;;;;;11.16;67.22;99057.02;103073;1297;98051;-80
2022/10/15 00:11:50;;;;;;;33.20;17.00;;;;;;;11.17;67.16;99054.33;102984;1299;110735;-79
2022/10/15 00:14:19;;;;;;;36.10;18.90;;;;;;;11.18;67.04;99053.34;102927;1305;97825;-79
2022/10/15 00:16:47;;;;;;;34.20;18.50;;;;;;;11.16;67.03;99049.92;103033;1303;106224;-79
2022/10/15 00:19:15;;;;;;;37.30;20.40;;;;;;;11.14;67.17;99046.73;102935;1307;97845;-79
2022/10/15 00:21:42;;;;;;;38.90;19.30;;;;;;;11.11;67.12;99047.50;103063;1297;98592;-80
2022/10/15 00:24:10;;;;;;;35.50;18.80;;;;;;;11.06;67.02;99043.62;102992;1290;111054;-78
2022/10/15 00:26:38;;;;;;;33.40;17.30;;;;;;;11.03;67.36;99044.73;103072;1290;96171;-78
2022/10/15 00:29:06;;;;;;;31.60;18.40;;;;;;;11.02;67.14;99043.38;103048;1293;107209;-78
2022/10/15 00:31:37;;;;;;;32.30;17.20;;;;;;;11.03;67.43;99038.67;103019;1299;97972;-78
2022/10/15 00:34:05;;;;;;;33.60;16.80;;;;;;;11.06;67.38;99038.30;103001;1300;97897;-78
2022/10/15 00:36:37;;;;;;;30.80;16.20;;;;;;;11.07;67.35;99034.30;102983;1307;111009;-78
2022/10/15 00:39:09;;;;;;;28.10;16.30;;;;;;;11.09;67.66;99031.88;102990;1299;98014;-79
2022/10/15 00:41:43;;;;;;;31.30;15.80;;;;;;;11.07;67.71;99031.81;103126;1306;105815;-81
2022/10/15 00:44:23;;;;;;;31.50;15.90;;;;;;;11.06;67.81;99032.45;103148;1298;98009;-81
2022/10/15 00:47:18;;;;;;;27.80;14.60;;;;;;;11.05;67.88;99034.10;103116;1307;97856;-81
2022/10/15 00:50:10;;;;;;;30.20;14.10;;;;;;;11.06;68.26;99033.66;103067;1304;111301;-78
2022/10/15 00:52:52;;;;;;;30.80;16.40;;;;;;;11.08;68.10;99032.83;103129;1305;97795;-80
2022/10/15 00:55:40;;;;;;;33.20;16.60;;;;;;;11.08;67.99;99031.54;103138;1298;107450;-80
2022/10/15 00:58:15;;;;;;;31.40;17.30;;;;;;;11.09;68.49;99026.88;103173;1301;98004;-80
2022/10/15 01:00:43;;;;;;;39.00;19.00;;;;;;;11.07;68.16;99024.94;103125;1297;97986;-82
2022/10/15 01:03:14;;;;;;;32.50;18.30;;;;;;;11.04;68.17;99024.58;103130;1304;111316;-80
2022/10/15 01:05:50;;;;;;;33.10;18.30;;;;;;;11.02;68.18;99022.44;103165;1304;95340;-81
2022/10/15 01:08:18;;;;;;;34.00;17.00;;;;;;;11.00;68.54;99019.90;103169;1304;105763;-79
2022/10/15 01:11:05;;;;;;;29.10;15.50;;;;;;;10.99;68.58;99024.09;103150;1296;95176;-79
2022/10/15 01:13:54;;;;;;;31.80;16.00;;;;;;;10.98;68.68;99020.73;103169;1296;97976;-80
2022/10/15 01:17:10;;;;;;;29.20;15.20;;;;;;;10.97;68.72;99018.92;103139;1297;111140;-80
2022/10/15 01:20:15;;;;;;;32.20;15.10;;;;;;;10.96;68.70;99020.21;102327;1305;98271;-80
2022/10/15 01:23:26;;;;;;;31.10;16.10;;;;;;;10.97;69.17;99018.89;102351;1306;107499;-80
2022/10/15 01:26:21;;;;;;;29.60;14.30;;;;;;;10.98;68.80;99020.80;103077;1304;95205;-77
2022/10/15 01:29:15;;;;;;;30.60;16.30;;;;;;;10.99;68.92;99017.00;103056;1300;97876;-78
2022/10/15 01:31:58;;;;;;;31.00;15.70;;;;;;;10.99;69.01;99013.98;103066;1304;111120;-79
2022/10/15 01:34:44;;;;;;;29.90;14.90;;;;;;;10.99;69.18;99010.77;103079;1297;97975;-79
2022/10/15 01:37:29;;;;;;;28.90;13.60;;;;;;;10.99;69.19;99011.27;103096;1305;107141;-78
2022/10/15 01:40:06;;;;;;;29.70;14.70;;;;;;;11.01;68.97;99010.27;103108;1305;97990;-79
2022/10/15 01:43:01;;;;;;;28.60;14.70;;;;;;;11.04;69.43;99010.03;103148;1290;97813;-78
2022/10/15 01:45:45;;;;;;;28.30;14.70;;;;;;;11.07;69.19;99010.01;103102;1298;111237;-79
2022/10/15 01:48:18;;;;;;;29.00;13.90;;;;;;;11.09;69.17;99008.63;103063;1299;98023;-78
2022/10/15 01:50:56;;;;;;;26.10;14.20;;;;;;;11.11;69.37;99008.80;103074;1296;107351;-80
2022/10/15 01:53:33;;;;;;;26.50;13.20;;;;;;;11.14;69.33;99010.88;103028;1299;97851;-79
2022/10/15 01:56:14;;;;;;;24.90;12.50;;;;;;;11.19;69.33;99012.13;103126;1290;98669;-80
2022/10/15 01:58:48;;;;;;;25.50;12.10;;;;;;;11.24;69.41;99010.16;103145;1303;111320;-79
2022/10/15 02:01:15;;;;;;;;;;;;;;;11.28;69.47;99009.30;103137;1304;97919;-79
2022/10/15 02:03:51;;;;;;;24.30;12.00;;;;;;;11.30;69.44;99009.29;103066;1296;107296;-78
2022/10/15 02:06:52;;;;;;;25.40;12.30;;;;;;;11.35;69.43;99013.76;103110;1304;98023;-78
2022/10/15 02:09:35;;;;;;;23.30;11.80;;;;;;;11.37;69.38;99013.06;102867;1299;97936;-80
2022/10/15 02:12:09;;;;;;;32.20;12.40;;;;;;;11.39;69.45;99009.70;103088;1296;111544;-78
2022/10/15 02:15:00;;;;;;;24.30;12.10;;;;;;;11.40;69.41;99009.24;103107;1305;97895;-79
2022/10/15 02:17:43;;;;;;;24.80;12.50;;;;;;;11.42;69.46;99008.05;103124;1296;107452;-79
2022/10/15 02:20:24;;;;;;;24.70;12.80;;;;;;;11.42;69.46;99005.19;103134;1291;97944;-79
2022/10/15 02:23:09;;;;;;;26.50;12.70;;;;;;;11.43;69.59;99004.95;103158;1296;97988;-78
2022/10/15 02:25:42;;;;;;;23.80;12.10;;;;;;;11.43;69.38;99002.80;103076;1305;111145;-78
2022/10/15 02:28:16;;;;;;;26.40;12.70;;;;;;;11.43;69.45;99002.95;103167;1298;95188;-78
2022/10/15 02:30:51;;;;;;;25.50;12.20;;;;;;;11.43;69.53;99001.44;103054;1299;107462;-79
2022/10/15 02:33:23;;;;;;;28.30;12.90;;;;;;;11.41;69.81;99001.00;103093;1300;97954;-78
2022/10/15 02:35:57;;;;;;;27.00;13.30;;;;;;;11.39;69.64;98998.71;103127;1300;98631;-78
2022/10/15 02:38:30;;;;;;;24.40;12.50;;;;;;;11.36;69.80;98995.71;103158;1304;111208;-77
2022/10/15 02:41:01;;;;;;;17.80;8.80;;;;;;;11.34;69.72;98991.96;103133;1298;97975;-78
2022/10/15 02:43:33;;;;;;;23.80;12.20;;;;;;;11.31;69.83;98989.52;103012;1288;107478;-78
2022/10/15 02:46:00;;;;;;;23.00;12.00;;;;;;;11.30;69.72;98986.08;103013;1296;98552;-79
2022/10/15 02:48:28;;;;;;;25.80;12.50;;;;;;;11.29;69.81;98987.55;103085;1304;97889;-80
2022/10/15 02:50:56;;;;;;;23.30;11.20;;;;;;;11.28;69.85;98990.64;103142;1297;110177;-77
2022/10/15 02:53:23;;;;;;;25.90;12.10;;;;;;;11.27;70.03;98991.25;103117;1296;98025;-78
2022/10/15 02:55:51;;;;;;;25.00;12.30;;;;;;;11.27;69.90;98988.92;103054;1299;107500;-79
2022/10/15 02:58:19;;;;;;;26.00;13.20;;;;;;;11.25;69.98;98988.16;103076;1307;97872;-79
2022/10/15 03:00:51;;;;;;;23.30;12.70;;;;;;;11.24;69.79;98985.65;103110;1302;98007;-78
2022/10/15 03:03:18;;;;;;;24.50;11.80;;;;;;;11.22;69.87;98990.21;103106;1304;110711;-78
2022/10/15 03:05:50;;;;;;;24.50;12.30;;;;;;;11.19;69.85;98989.05;103246;1297;96318;-80
2022/10/15 03:08:17;;;;;;;23.30;12.10;;;;;;;11.16;69.85;98990.69;103243;1301;107461;-81
2022/10/15 03:10:45;;;;;;;30.10;12.90;;;;;;;11.13;69.84;98988.11;103654;1297;97993;-80
2022/10/15 03:13:16;;;;;;;24.60;12.40;;;;;;;11.09;69.89;98990.70;103138;1297;97881;-79
2022/10/15 03:15:43;;;;;;;23.30;11.80;;;;;;;11.06;70.01;98992.14;103116;1296;111280;-80
2022/10/15 03:18:12;;;;;;;24.50;12.70;;;;;;;11.03;70.11;98987.38;103067;1302;97919;-79
2022/10/15 03:20:40;;;;;;;24.80;12.30;;;;;;;11.01;70.17;98985.58;103029;1300;107335;-80
2022/10/15 03:23:10;;;;;;;26.80;12.10;;;;;;;10.97;70.14;98984.63;103034;1297;97896;-80
2022/10/15 03:25:38;;;;;;;28.00;13.40;;;;;;;10.94;70.12;98983.45;103092;1299;98433;-77
2022/10/15 03:28:06;;;;;;;26.90;13.60;;;;;;;10.90;70.52;98981.79;103084;1291;109138;-78
2022/10/15 03:30:33;;;;;;;23.40;12.00;;;;;;;10.87;70.44;98979.70;103074;1305;97893;-79
2022/10/15 03:33:01;;;;;;;24.40;12.30;;;;;;;10.84;70.40;98977.95;103058;1298;107341;-78
2022/10/15 03:35:29;;;;;;;24.50;12.90;;;;;;;10.82;70.57;98974.02;103065;1303;97112;-77
2022/10/15 03:37:57;;;;;;;23.80;13.10;;;;;;;10.79;70.62;98974.16;103131;1290;96260;-79
2022/10/15 03:40:28;;;;;;;27.20;12.90;;;;;;;10.76;70.46;98972.60;102927;1303;112186;-79
2022/10/15 03:42:55;;;;;;;26.40;13.20;;;;;;;10.73;70.60;98976.14;103069;1297;95138;-81
2022/10/15 03:45:27;;;;;;;26.10;13.50;;;;;;;10.72;70.72;98980.45;103058;1304;107544;-78
2022/10/15 03:47:55;;;;;;;26.10;13.20;;;;;;;10.74;70.67;98983.38;103067;1304;97887;-78
2022/10/15 03:50:22;;;;;;;26.10;13.80;;;;;;;10.76;70.75;98985.19;103068;1297;97891;-79
2022/10/15 03:52:50;;;;;;;27.50;13.80;;;;;;;10.80;70.71;98988.79;103062;1299;111235;-79
2022/10/15 03:55:18;;;;;;;25.00;13.10;;;;;;;10.85;70.83;98989.45;103134;1300;97878;-79
2022/10/15 03:57:46;;;;;;;32.30;13.80;;;;;;;10.90;70.83;98988.36;103105;1307;106663;-79
2022/10/15 04:00:14;;;;;;;26.00;13.00;;;;;;;10.96;70.89;98987.25;103121;1298;95219;-78
2022/10/15 04:02:44;;;;;;;25.00;13.20;;;;;;;11.01;70.87;98983.10;103126;1304;97913;-81
2022/10/15 04:05:12;;;;;;;29.10;14.40;;;;;;;11.05;70.93;98982.65;103122;1290;111151;-79
2022/10/15 04:07:41;;;;;;;27.20;13.00;;;;;;;11.08;70.91;98982.45;103162;1297;97812;-79
2022/10/15 04:10:12;;;;;;;26.40;12.90;;;;;;;11.09;71.03;98986.23;103089;1296;107406;-81
2022/10/15 04:12:40;;;;;;;26.80;12.60;;;;;;;11.10;70.89;98985.82;103033;1298;97979;-79
2022/10/15 04:15:08;;;;;;;27.40;13.50;;;;;;;11.12;70.95;98986.91;103068;1297;98071;-78
2022/10/15 04:17:36;;;;;;;26.10;13.40;;;;;;;11.13;70.93;98981.46;103064;1304;110828;-79
2022/10/15 04:20:04;;;;;;;26.90;13.20;;;;;;;11.16;70.87;98986.97;103062;1303;95233;-79
2022/10/15 04:22:32;;;;;;;25.20;13.80;;;;;;;11.18;70.90;98986.98;103086;1304;106454;-80
2022/10/15 04:25:00;;;;;;;24.60;12.80;;;;;;;11.21;71.02;98987.83;103065;1304;97984;-79
2022/10/15 04:27:28;;;;;;;26.40;13.20;;;;;;;11.23;71.07;98986.92;103122;1304;98621;-78
2022/10/15 04:29:55;;;;;;;26.80;13.20;;;;;;;11.26;70.99;98982.65;103081;1304;111362;-79
2022/10/15 04:32:23;;;;;;;27.20;13.10;;;;;;;11.27;70.97;98977.06;103080;1290;98006;-80
2022/10/15 04:34:54;;;;;;;26.40;12.50;;;;;;;11.27;71.08;98975.80;103100;1303;107645;-79
2022/10/15 04:37:22;;;;;;;27.90;13.40;;;;;;;11.27;71.10;98971.37;103154;1304;97936;-81
2022/10/15 04:39:53;;;;;;;27.20;13.20;;;;;;;11.27;70.95;98971.90;103171;1290;97894;-80
2022/10/15 04:42:21;;;;;;;24.80;13.10;;;;;;;11.27;71.30;98972.24;103124;1304;111188;-78
2022/10/15 04:44:49;;;;;;;25.90;13.20;;;;;;;11.26;71.22;98970.05;102961;1304;143685;-82
2022/10/15 04:47:16;;;;;;;23.80;12.70;;;;;;;11.24;71.04;98966.64;103127;1304;108984;-78
2022/10/15 04:49:44;;;;;;;26.70;14.60;;;;;;;11.25;71.21;98969.27;103104;1297;97868;-78
2022/10/15 04:52:12;;;;;;;25.10;13.10;;;;;;;11.26;71.18;98966.17;103064;1290;97004;-74
2022/10/15 04:54:40;;;;;;;26.90;12.70;;;;;;;11.27;71.33;98963.23;103097;1296;110961;-74
2022/10/15 04:57:08;;;;;;;25.00;12.80;;;;;;;11.28;71.22;98966.54;103082;1303;95199;-80
2022/10/15 04:59:35;;;;;;;26.00;14.10;;;;;;;11.29;71.31;98971.97;102855;1296;106725;-76
2022/10/15 05:02:08;;;;;;;27.40;14.10;;;;;;;11.29;71.36;98977.11;103048;1304;97980;-79
2022/10/15 05:04:37;;;;;;;31.30;15.50;;;;;;;11.28;71.31;98980.30;103051;1303;97999;-74
2022/10/15 05:07:05;;;;;;;29.30;15.30;;;;;;;11.28;71.34;98980.86;103094;1304;111093;-75
2022/10/15 05:09:32;;;;;;;30.00;14.70;;;;;;;11.28;71.29;98978.73;103068;1305;97809;-78
2022/10/15 05:12:04;;;;;;;26.30;14.70;;;;;;;11.28;71.39;98976.83;103072;1304;107222;-67
2022/10/15 05:14:31;;;;;;;27.50;14.30;;;;;;;11.29;71.62;98974.97;103047;1307;98008;-68
2022/10/15 05:16:59;;;;;;;24.90;13.10;;;;;;;11.28;71.43;98971.70;103092;1297;98559;-68
2022/10/15 05:19:27;;;;;;;26.10;14.00;;;;;;;11.27;71.46;98974.55;103096;1304;111746;-71
2022/10/15 05:21:55;;;;;;;26.90;13.90;;;;;;;11.27;71.35;98974.73;103109;1297;95189;-68
2022/10/15 05:24:22;;;;;;;24.60;13.80;;;;;;;11.27;71.44;98978.89;103086;1296;107481;-72
2022/10/15 05:26:50;;;;;;;29.20;13.80;;;;;;;11.26;71.55;98983.52;103114;1299;97977;-73
2022/10/15 05:29:18;;;;;;;24.30;13.20;;;;;;;11.26;71.49;98981.05;103062;1296;97860;-71
2022/10/15 05:31:51;;;;;;;25.60;12.80;;;;;;;11.27;71.44;98977.95;103029;1301;111167;-71
2022/10/15 05:34:19;;;;;;;25.20;13.40;;;;;;;11.30;71.61;98980.89;103034;1303;95517;-71
2022/10/15 05:36:47;;;;;;;25.10;13.30;;;;;;;11.33;71.54;98979.45;103112;1296;107134;-73
2022/10/15 05:39:14;;;;;;;24.50;12.70;;;;;;;11.37;71.59;98978.27;103115;1303;98398;-71
2022/10/15 05:41:42;;;;;;;24.40;11.90;;;;;;;11.41;71.65;98980.77;103096;1297;95937;-72
2022/10/15 05:44:10;;;;;;;25.50;13.40;;;;;;;11.44;71.77;98977.36;103177;1303;110755;-71
2022/10/15 05:46:41;;;;;;;26.30;12.70;;;;;;;11.47;71.78;98970.18;103041;1306;97863;-71
2022/10/15 05:49:09;;;;;;;24.00;12.10;;;;;;;11.50;72.05;98973.73;103103;1298;106156;-70
2022/10/15 05:51:38;;;;;;;26.90;13.00;;;;;;;11.51;71.79;98979.33;103173;1289;97873;-70
2022/10/15 05:54:06;;;;;;;24.00;11.60;;;;;;;11.54;71.73;98981.21;103065;1305;98012;-70
2022/10/15 05:56:34;;;;;;;23.10;12.00;;;;;;;11.57;71.81;98979.16;103949;1305;110869;-71
2022/10/15 05:59:03;;;;;;;23.70;12.30;;;;;;;11.62;71.94;98982.70;103036;1296;99004;-74
2022/10/15 06:01:31;;;;;;;21.80;11.30;;;;;;;11.66;71.86;98980.61;102949;1304;107600;-72
2022/10/15 06:03:59;;;;;;;24.50;11.50;;;;;;;11.69;71.96;98985.52;102966;1303;98030;-72
2022/10/15 06:06:27;;;;;;;26.00;11.80;;;;;;;11.74;71.78;98991.19;103580;1297;95966;-71
2022/10/15 06:09:00;;;;;;;22.90;11.80;;;;;;;11.79;71.79;98996.34;104261;1297;111406;-71
2022/10/15 06:11:28;;;;;;;28.90;13.30;;;;;;;11.84;71.72;98996.64;103188;1304;97890;-73
2022/10/15 06:13:56;;;;;;;26.40;12.30;;;;;;;11.88;71.74;98995.39;103181;1304;107513;-70
2022/10/15 06:16:27;;;;;;;24.80;12.50;;;;;;;11.93;71.80;98993.45;103118;1298;95174;-74
2022/10/15 06:18:58;;;;;;;27.60;13.10;;;;;;;11.98;71.79;98994.34;103164;1297;95125;-70
2022/10/15 06:21:26;;;;;;;24.90;13.10;;;;;;;12.02;71.65;98994.36;103105;1296;110764;-73
2022/10/15 06:23:53;;;;;;;25.60;12.60;;;;;;;12.07;71.74;98994.87;103139;1306;97995;-72
2022/10/15 06:26:21;;;;;;;26.00;12.90;;;;;;;12.11;71.78;98995.27;103043;1303;107412;-74
2022/10/15 06:28:49;;;;;;;25.10;13.10;;;;;;;12.13;71.71;98993.89;103033;1307;97960;-74
2022/10/15 06:31:17;;;;;;;23.60;12.80;;;;;;;12.16;71.74;99000.39;103068;1300;95116;-72
2022/10/15 06:33:48;;;;;;;24.90;12.30;;;;;;;12.20;71.91;99000.74;102987;1299;110430;-76
2022/10/15 06:36:16;;;;;;;24.60;11.90;;;;;;;12.23;71.80;99003.21;103128;1298;97899;-77
2022/10/15 06:38:47;;;;;;;22.50;11.70;;;;;;;12.24;71.87;99008.05;103097;1305;107413;-76
2022/10/15 06:41:15;;;;;;;23.40;11.50;;;;;;;12.25;71.81;99006.38;103142;1304;96781;-76
2022/10/15 06:43:53;;;;;;;23.40;12.40;;;;;;;12.27;71.81;99006.26;103151;1296;95180;-75
2022/10/15 06:46:21;;;;;;;24.00;12.60;;;;;;;12.30;71.84;99009.52;103139;1303;111149;-74
2022/10/15 06:48:50;;;;;;;22.20;11.90;;;;;;;12.33;71.88;99008.97;103197;1296;97890;-76
2022/10/15 06:51:21;;;;;;;24.10;12.40;;;;;;;12.36;71.84;99009.41;103169;1305;107213;-74
2022/10/15 06:53:49;;;;;;;24.60;11.90;;;;;;;12.40;71.82;99014.84;103166;1297;95149;-75
2022/10/15 06:56:17;;;;;;;22.50;11.20;;;;;;;12.41;71.80;99012.92;103116;1304;97828;-74
2022/10/15 06:58:44;;;;;;;23.00;11.80;;;;;;;12.43;71.86;99015.03;103175;1305;111286;-76
2022/10/15 07:01:12;;;;;;;23.50;11.90;;;;;;;12.45;71.91;99014.16;103075;1305;97927;-75
2022/10/15 07:03:40;;;;;;;23.00;11.70;;;;;;;12.48;71.78;99016.48;103112;1302;107480;-76
2022/10/15 07:06:11;;;;;;;21.70;12.10;;;;;;;12.50;71.87;99016.28;103079;1307;97978;-79
2022/10/15 07:08:43;;;;;;;23.20;12.50;;;;;;;12.54;71.94;99023.48;103138;1298;96960;-76
2022/10/15 07:11:14;;;;;;;25.50;12.20;;;;;;;12.56;71.82;99020.29;103049;1304;110808;-77
2022/10/15 07:13:43;;;;;;;25.00;12.90;;;;;;;12.58;71.95;99026.31;103181;1305;98450;-76
2022/10/15 07:16:14;;;;;;;24.80;11.70;;;;;;;12.60;71.89;99024.55;103143;1303;108047;-74
2022/10/15 07:18:50;;;;;;;26.90;13.10;;;;;;;12.62;71.94;99029.86;103126;1307;98000;-78
2022/10/15 07:21:18;;;;;;;;;;;;;;;12.64;71.91;99028.32;103136;1305;98389;-74
2022/10/15 07:23:46;;;;;;;25.30;12.50;;;;;;;12.63;72.09;99025.71;103124;1296;111169;-75
2022/10/15 07:26:13;;;;;;;27.20;13.70;;;;;;;12.65;72.09;99025.20;103227;1297;95226;-74
2022/10/15 07:28:41;;;;;;;27.00;13.20;;;;;;;12.68;72.02;99028.17;103134;1303;107464;-74
2022/10/15 07:31:09;;;;;;;24.90;12.80;;;;;;;12.70;72.00;99027.32;102964;1300;98085;-75
2022/10/15 07:33:38;;;;;;;27.10;12.70;;;;;;;12.73;71.93;99026.00;103166;1296;96372;-77
2022/10/15 07:36:11;;;;;;;28.20;11.70;;;;;;;12.76;71.95;99025.73;103169;1296;111115;-76
2022/10/15 07:38:39;;;;;;;22.40;11.90;;;;;;;12.81;71.96;99029.08;103137;1295;98244;-76
2022/10/15 07:41:11;;;;;;;25.70;12.20;;;;;;;12.87;71.82;99031.45;103136;1303;107744;-76
2022/10/15 07:43:39;;;;;;;23.50;12.50;;;;;;;12.93;71.83;99028.25;103082;1295;95805;-74
2022/10/15 07:46:06;;;;;;;24.80;11.60;;;;;;;13.01;71.82;99030.51;103182;1297;95206;-74
2022/10/15 07:48:34;;;;;;;25.20;11.40;;;;;;;13.07;71.76;99027.82;102967;1300;111113;-74
2022/10/15 07:51:07;;;;;;;22.10;10.90;;;;;;;13.17;71.72;99028.30;103143;1300;97986;-73
2022/10/15 07:53:35;;;;;;;22.00;10.90;;;;;;;13.28;71.76;99026.25;103011;1304;107584;-74
2022/10/15 07:56:10;;;;;;;28.20;11.70;;;;;;;13.38;71.71;99023.13;103152;1298;97972;-74
2022/10/15 07:58:41;;;;;;;24.20;11.60;;;;;;;13.47;71.50;99026.46;103242;1303;98206;-75
2022/10/15 08:01:10;;;;;;;21.20;10.90;;;;;;;13.56;71.67;99027.34;103169;1303;111101;-73
2022/10/15 08:03:38;;;;;;;24.00;11.60;;;;;;;13.65;71.64;99028.63;103178;1304;96233;-73
2022/10/15 08:06:09;;;;;;;21.30;11.00;;;;;;;13.75;71.54;99030.70;102924;1304;107746;-74
2022/10/15 08:08:36;;;;;;;22.40;11.60;;;;;;;13.82;71.53;99027.23;103052;1298;97893;-74
2022/10/15 08:11:15;;;;;;;21.80;10.60;;;;;;;13.90;71.40;99027.11;102971;1304;97904;-75
2022/10/15 08:13:45;;;;;;;23.60;11.50;;;;;;;14.01;71.25;99028.39;103026;1303;110784;-74
2022/10/15 08:16:19;;;;;;;21.60;11.10;;;;;;;14.15;71.06;99027.77;103070;1298;95949;-74
2022/10/15 08:18:46;;;;;;;26.70;11.20;;;;;;;14.31;71.27;99027.82;103082;1296;107525;-77
2022/10/15 08:21:17;;;;;;;23.50;11.70;;;;;;;14.44;71.06;99026.81;103032;1304;98002;-74
2022/10/15 08:23:46;;;;;;;27.20;11.50;;;;;;;14.57;70.80;99024.08;103039;1303;97965;-74
2022/10/15 08:26:21;;;;;;;21.80;10.40;;;;;;;14.68;70.90;99022.21;103039;1303;110734;-73
2022/10/15 08:28:49;;;;;;;23.70;10.50;;;;;;;14.80;71.06;99019.15;102897;1304;98066;-75
2022/10/15 08:31:20;;;;;;;24.10;10.60;;;;;;;14.96;70.71;99019.11;103065;1304;107451;-74
2022/10/15 08:33:48;;;;;;;22.30;10.90;;;;;;;15.17;70.99;99019.72;103061;1312;97839;-74
2022/10/15 08:36:16;;;;;;;25.10;10.90;;;;;;;15.48;70.81;99022.78;103110;1289;97874;-74
2022/10/15 08:38:44;;;;;;;20.60;9.90;;;;;;;15.84;70.61;99020.83;103141;1294;110268;-74
2022/10/15 08:41:38;;;;;;;21.70;10.40;;;;;;;16.21;70.96;99022.12;103093;1304;97878;-75
2022/10/15 08:44:23;;;;;;;24.40;11.10;;;;;;;16.58;69.45;99024.82;102923;1305;106404;-74
2022/10/15 08:47:07;;;;;;;21.80;11.00;;;;;;;16.85;70.16;99029.13;103042;1296;97860;-75
2022/10/15 08:49:53;;;;;;;22.60;11.10;;;;;;;17.09;68.99;99025.88;102974;1305;97886;-73
2022/10/15 08:52:30;;;;;;;22.30;11.20;;;;;;;17.23;69.80;99028.95;103080;1311;111188;-73
2022/10/15 08:55:12;;;;;;;23.10;10.70;;;;;;;17.25;68.89;99030.61;102978;1302;98053;-74
2022/10/15 08:58:19;;;;;;;23.90;11.20;;;;;;;17.16;69.21;99027.34;102953;1297;107118;-74
2022/10/15 09:00:53;;;;;;;21.00;10.90;;;;;;;17.08;68.13;99027.29;102868;1305;98088;-75
2022/10/15 09:03:32;;;;;;;23.40;10.30;;;;;;;17.22;68.79;99028.57;102998;1303;95328;-73
2022/10/15 09:06:08;;;;;;;24.20;11.20;;;;;;;17.51;68.31;99029.02;103071;1297;111148;-75
2022/10/15 09:08:54;;;;;;;22.60;10.90;;;;;;;17.78;68.80;99024.81;102937;1307;97890;-73
2022/10/15 09:11:36;;;;;;;20.20;10.70;;;;;;;18.08;68.70;99025.17;103101;1303;107513;-75
2022/10/15 09:14:10;;;;;;;22.60;12.40;;;;;;;18.41;68.27;99030.48;103055;1303;97983;-74
2022/10/15 09:16:42;;;;;;;31.70;13.00;;;;;;;18.60;67.82;99028.17;103117;1304;95123;-75
2022/10/15 09:19:22;;;;;;;21.90;10.60;;;;;;;18.91;67.10;99025.89;103152;1303;109802;-74
2022/10/15 09:21:54;;;;;;;32.20;11.70;;;;;;;19.23;66.73;99021.65;103092;1303;96095;-75
2022/10/15 09:24:28;;;;;;;23.40;11.10;;;;;;;19.51;66.49;99023.40;103082;1303;107449;-73
2022/10/15 09:27:10;;;;;;;19.90;10.70;;;;;;;19.78;66.98;99014.89;103132;1299;97892;-73
2022/10/15 09:30:17;;;;;;;25.90;12.00;;;;;;;19.96;66.36;99015.34;102979;1296;96481;-80
2022/10/15 09:32:52;;;;;;;24.10;11.80;;;;;;;19.93;66.05;99016.77;104273;1305;111036;-75
2022/10/15 09:35:28;;;;;;;22.90;11.50;;;;;;;20.00;64.83;99012.41;102999;1304;98032;-77
2022/10/15 09:38:25;;;;;;;21.20;10.50;;;;;;;20.02;65.72;99017.41;104635;1301;109218;-76
2022/10/15 09:41:15;;;;;;;22.10;11.30;;;;;;;20.03;64.65;99019.88;104824;1301;96171;-76
2022/10/15 09:43:50;;;;;;;23.90;12.50;;;;;;;19.97;64.65;99020.19;104443;1294;96319;-76
2022/10/15 09:46:17;;;;;;;23.70;12.10;;;;;;;19.94;65.08;99022.80;103092;1297;111178;-77
2022/10/15 09:49:20;;;;;;;26.60;13.00;;;;;;;19.88;62.05;99027.30;103182;1303;97940;-78
2022/10/15 09:51:50;;;;;;;24.80;14.00;;;;;;;19.69;62.60;99027.35;103133;1296;106616;-77
2022/10/15 09:54:45;;;;;;;22.30;11.00;;;;;;;19.62;63.70;99027.50;103123;1302;95559;-76
2022/10/15 09:57:18;;;;;;;20.00;11.10;;;;;;;19.73;64.41;99025.16;103163;1296;97977;-77
2022/10/15 09:59:52;;;;;;;;;;;;;;;19.83;63.49;99022.02;103008;1305;110950;-77
2022/10/15 10:02:21;;;;;;;;;;;;;;;19.82;62.39;99016.63;103137;1304;97936;-75
2022/10/15 10:04:55;;;;;;;22.40;12.30;;;;;;;19.81;62.14;99018.48;103113;1303;107663;-75
2022/10/15 10:07:41;;;;;;;24.40;13.40;;;;;;;19.81;62.95;99014.73;103140;1302;95246;-74
2022/10/15 10:10:38;;;;;;;24.20;11.50;;;;;;;19.71;60.47;99016.11;103169;1303;97969;-76
2022/10/15 10:13:32;;;;;;;22.30;11.40;;;;;;;19.42;61.01;99019.84;103148;1303;109947;-76
2022/10/15 10:16:07;;;;;;;22.80;12.30;;;;;;;19.24;62.04;99017.73;103000;1306;96073;-76
2022/10/15 10:18:38;;;;;;;21.40;10.90;;;;;;;19.19;61.52;99017.77;103106;1304;107376;-75
2022/10/15 10:21:22;;;;;;;24.20;11.50;;;;;;;19.09;61.83;99012.00;103078;1297;97913;-76
2022/10/15 10:23:50;;;;;;;20.90;11.20;;;;;;;19.15;62.13;99016.52;103060;1296;97976;-75
2022/10/15 10:26:22;;;;;;;20.60;11.20;;;;;;;19.32;61.96;99014.23;103098;1290;111369;-76
2022/10/15 10:28:54;;;;;;;22.60;11.70;;;;;;;19.49;61.95;99015.86;103097;1296;97912;-76
2022/10/15 10:31:41;;;;;;;23.80;11.50;;;;;;;19.54;61.23;99014.07;103074;1303;107898;-75
2022/10/15 10:34:26;;;;;;;23.80;12.20;;;;;;;19.50;59.52;99016.83;103034;1305;96549;-75
2022/10/15 10:36:58;;;;;;;24.50;11.10;;;;;;;19.41;60.30;99015.29;103075;1298;95141;-76
2022/10/15 10:39:30;;;;;;;20.50;10.90;;;;;;;19.27;59.81;99014.19;103049;1303;111293;-75
2022/10/15 10:42:02;;;;;;;20.90;11.50;;;;;;;19.14;59.83;99016.25;103063;1298;97872;-75
2022/10/15 10:44:45;;;;;;;20.40;11.30;;;;;;;19.05;59.93;99015.44;103128;1302;107419;-75
2022/10/15 10:47:20;;;;;;;20.20;10.50;;;;;;;18.95;60.00;99019.02;103164;1303;97983;-75
2022/10/15 10:49:56;;;;;;;23.80;11.90;;;;;;;18.93;60.42;99010.05;103200;1303;97877;-76
2022/10/15 10:52:24;;;;;;;23.40;11.30;;;;;;;18.96;59.19;99016.98;103051;1308;111212;-76
2022/10/15 10:55:18;;;;;;;23.40;11.30;;;;;;;18.99;59.23;99014.02;103139;1303;97964;-75
2022/10/15 10:57:54;;;;;;;26.40;11.90;;;;;;;19.06;59.40;99018.64;103077;1306;107374;-74
2022/10/15 11:00:46;;;;;;;21.30;11.00;;;;;;;19.11;58.94;99009.11;102979;1306;98001;-76
2022/10/15 11:03:43;;;;;;;20.90;10.50;;;;;;;19.13;58.42;99007.45;103228;1303;98142;-75
2022/10/15 11:06:10;;;;;;;22.80;11.40;;;;;;;19.09;58.32;99010.22;103137;1298;111690;-76
2022/10/15 11:08:59;;;;;;;25.30;12.20;;;;;;;19.11;58.56;99004.02;103190;1303;95230;-77
2022/10/15 11:11:40;;;;;;;26.80;11.30;;;;;;;19.21;57.97;99005.26;103202;1303;107385;-75
2022/10/15 11:15:02;;;;;;;21.30;11.20;;;;;;;19.27;58.07;99004.48;103133;1303;98120;-76
2022/10/15 11:18:07;;;;;;;19.90;10.60;;;;;;;19.34;58.82;99006.71;102603;1308;98133;-75
2022/10/15 11:21:00;;;;;;;20.60;10.40;;;;;;;19.42;57.45;99007.44;103017;1303;110071;-75
2022/10/15 11:23:48;;;;;;;21.40;10.60;;;;;;;19.46;57.74;99002.91;103109;1297;97883;-71
2022/10/15 11:26:40;;;;;;;24.40;10.30;;;;;;;19.45;58.07;99000.32;103093;1303;107624;-75
2022/10/15 11:29:37;;;;;;;21.10;11.00;;;;;;;19.45;58.04;99001.36;103104;1305;98027;-76
2022/10/15 11:32:33;;;;;;;22.70;11.30;;;;;;;19.39;56.95;98997.05;103060;1305;97931;-76
2022/10/15 11:35:35;;;;;;;22.80;11.70;;;;;;;19.31;56.95;98997.51;103012;1305;111530;-75
2022/10/15 11:38:44;;;;;;;21.60;10.80;;;;;;;19.23;56.52;99000.41;103154;1302;97897;-75
2022/10/15 11:41:38;;;;;;;23.80;11.20;;;;;;;19.20;56.58;98999.29;103081;1312;107459;-74